sensor_id;sensor_type;location;lat;lon;timestamp;P1;durP1;ratioP1;P2;durP2;ratioP2
6029;SDS011;3043;42.682;23.376;2023-04-25T00:01:19;6.50;;;3.97;;
6029;SDS011;3043;42.682;23.376;2023-04-25T00:03:46;7.53;;;4.10;;
6029;SDS011;3043;42.682;23.376;2023-04-25T00:06:12;7.03;;;4.10;;
6029;SDS011;3043;42.682;23.376;2023-04-25T00:08:37;9.00;;;4.87;;
6029;SDS011;3043;42.682;23.376;2023-04-25T00:11:03;8.30;;;5.37;;
6029;SDS011;3043;42.682;23.376;2023-04-25T00:13:29;11.63;;;5.83;;
6029;SDS011;3043;42.682;23.376;2023-04-25T00:15:54;9.03;;;4.87;;
6029;SDS011;3043;42.682;23.376;2023-04-25T00:18:21;7.23;;;4.30;;
6029;SDS011;3043;42.682;23.376;2023-04-25T00:20:47;7.33;;;4.53;;
6029;SDS011;3043;42.682;23.376;2023-04-25T00:23:13;12.37;;;7.37;;
6029;SDS011;3043;42.682;23.376;2023-04-25T00:25:45;7.00;;;4.30;;
6029;SDS011;3043;42.682;23.376;2023-04-25T00:28:12;7.27;;;4.50;;
6029;SDS011;3043;42.682;23.376;2023-04-25T00:30:38;6.67;;;3.87;;
6029;SDS011;3043;42.682;23.376;2023-04-25T00:33:04;7.83;;;4.53;;
6029;SDS011;3043;42.682;23.376;2023-04-25T00:35:29;7.43;;;4.57;;
6029;SDS011;3043;42.682;23.376;2023-04-25T00:37:55;9.47;;;4.90;;
6029;SDS011;3043;42.682;23.376;2023-04-25T00:40:20;7.80;;;4.80;;
6029;SDS011;3043;42.682;23.376;2023-04-25T00:42:46;9.40;;;4.43;;
6029;SDS011;3043;42.682;23.376;2023-04-25T00:45:12;6.27;;;3.73;;
6029;SDS011;3043;42.682;23.376;2023-04-25T00:47:40;6.57;;;3.77;;
6029;SDS011;3043;42.682;23.376;2023-04-25T00:50:06;8.97;;;4.20;;
6029;SDS011;3043;42.682;23.376;2023-04-25T00:52:33;5.83;;;3.33;;
6029;SDS011;3043;42.682;23.376;2023-04-25T00:54:59;7.10;;;3.93;;
6029;SDS011;3043;42.682;23.376;2023-04-25T00:57:25;7.67;;;3.93;;
6029;SDS011;3043;42.682;23.376;2023-04-25T00:59:51;6.67;;;3.87;;
6029;SDS011;3043;42.682;23.376;2023-04-25T01:02:18;6.00;;;3.77;;
6029;SDS011;3043;42.682;23.376;2023-04-25T01:04:44;5.50;;;3.27;;
6029;SDS011;3043;42.682;23.376;2023-04-25T01:07:10;7.07;;;3.93;;
6029;SDS011;3043;42.682;23.376;2023-04-25T01:09:35;6.77;;;3.83;;
6029;SDS011;3043;42.682;23.376;2023-04-25T01:12:01;6.70;;;3.70;;
6029;SDS011;3043;42.682;23.376;2023-04-25T01:14:27;6.23;;;3.50;;
6029;SDS011;3043;42.682;23.376;2023-04-25T01:16:54;6.60;;;3.73;;
6029;SDS011;3043;42.682;23.376;2023-04-25T01:19:19;8.10;;;4.50;;
6029;SDS011;3043;42.682;23.376;2023-04-25T01:21:45;7.43;;;4.73;;
6029;SDS011;3043;42.682;23.376;2023-04-25T01:24:11;8.57;;;5.20;;
6029;SDS011;3043;42.682;23.376;2023-04-25T01:26:37;9.03;;;4.80;;
6029;SDS011;3043;42.682;23.376;2023-04-25T01:29:04;9.43;;;5.23;;
6029;SDS011;3043;42.682;23.376;2023-04-25T01:31:30;8.30;;;4.97;;
6029;SDS011;3043;42.682;23.376;2023-04-25T01:33:57;7.50;;;5.07;;
6029;SDS011;3043;42.682;23.376;2023-04-25T01:36:22;7.20;;;4.67;;
6029;SDS011;3043;42.682;23.376;2023-04-25T01:38:48;7.47;;;4.70;;
6029;SDS011;3043;42.682;23.376;2023-04-25T01:41:14;8.13;;;5.17;;
6029;SDS011;3043;42.682;23.376;2023-04-25T01:43:40;7.27;;;4.67;;
6029;SDS011;3043;42.682;23.376;2023-04-25T01:46:06;9.30;;;5.33;;
6029;SDS011;3043;42.682;23.376;2023-04-25T01:48:31;8.53;;;4.90;;
6029;SDS011;3043;42.682;23.376;2023-04-25T01:50:57;9.77;;;4.47;;
6029;SDS011;3043;42.682;23.376;2023-04-25T01:53:22;7.30;;;4.30;;
6029;SDS011;3043;42.682;23.376;2023-04-25T01:55:49;6.67;;;4.17;;
6029;SDS011;3043;42.682;23.376;2023-04-25T01:58:14;7.83;;;4.83;;
6029;SDS011;3043;42.682;23.376;2023-04-25T02:00:40;8.83;;;5.73;;
6029;SDS011;3043;42.682;23.376;2023-04-25T02:03:06;9.67;;;5.07;;
6029;SDS011;3043;42.682;23.376;2023-04-25T02:05:35;8.57;;;4.73;;
6029;SDS011;3043;42.682;23.376;2023-04-25T02:08:02;7.57;;;5.23;;
6029;SDS011;3043;42.682;23.376;2023-04-25T02:10:28;7.80;;;4.90;;
6029;SDS011;3043;42.682;23.376;2023-04-25T02:12:53;7.83;;;4.53;;
6029;SDS011;3043;42.682;23.376;2023-04-25T02:15:19;7.43;;;4.80;;
6029;SDS011;3043;42.682;23.376;2023-04-25T02:17:44;7.97;;;4.00;;
6029;SDS011;3043;42.682;23.376;2023-04-25T02:20:11;8.00;;;4.50;;
6029;SDS011;3043;42.682;23.376;2023-04-25T02:22:36;6.90;;;4.47;;
6029;SDS011;3043;42.682;23.376;2023-04-25T02:25:02;6.73;;;4.27;;
6029;SDS011;3043;42.682;23.376;2023-04-25T02:27:29;7.67;;;5.13;;
6029;SDS011;3043;42.682;23.376;2023-04-25T02:29:55;7.37;;;4.67;;
6029;SDS011;3043;42.682;23.376;2023-04-25T02:32:21;7.43;;;4.67;;
6029;SDS011;3043;42.682;23.376;2023-04-25T02:34:46;9.33;;;4.70;;
6029;SDS011;3043;42.682;23.376;2023-04-25T02:37:13;8.37;;;4.73;;
6029;SDS011;3043;42.682;23.376;2023-04-25T02:39:39;7.43;;;4.30;;
6029;SDS011;3043;42.682;23.376;2023-04-25T02:42:04;7.70;;;4.93;;
6029;SDS011;3043;42.682;23.376;2023-04-25T02:44:30;7.03;;;4.13;;
6029;SDS011;3043;42.682;23.376;2023-04-25T02:46:55;9.40;;;4.93;;
6029;SDS011;3043;42.682;23.376;2023-04-25T02:49:20;6.73;;;4.30;;
6029;SDS011;3043;42.682;23.376;2023-04-25T02:51:46;7.07;;;4.47;;
6029;SDS011;3043;42.682;23.376;2023-04-25T02:54:11;8.43;;;5.20;;
6029;SDS011;3043;42.682;23.376;2023-04-25T02:56:36;8.23;;;4.80;;
6029;SDS011;3043;42.682;23.376;2023-04-25T02:59:02;7.73;;;4.90;;
6029;SDS011;3043;42.682;23.376;2023-04-25T03:01:27;8.07;;;4.57;;
6029;SDS011;3043;42.682;23.376;2023-04-25T03:03:53;9.30;;;4.60;;
6029;SDS011;3043;42.682;23.376;2023-04-25T03:06:18;9.00;;;5.13;;
6029;SDS011;3043;42.682;23.376;2023-04-25T03:08:44;8.10;;;5.03;;
6029;SDS011;3043;42.682;23.376;2023-04-25T03:11:09;7.50;;;4.50;;
6029;SDS011;3043;42.682;23.376;2023-04-25T03:13:35;7.70;;;4.80;;
6029;SDS011;3043;42.682;23.376;2023-04-25T03:16:01;7.83;;;5.07;;
6029;SDS011;3043;42.682;23.376;2023-04-25T03:18:26;9.23;;;5.63;;
6029;SDS011;3043;42.682;23.376;2023-04-25T03:20:51;8.67;;;5.33;;
6029;SDS011;3043;42.682;23.376;2023-04-25T03:23:17;9.03;;;5.50;;
6029;SDS011;3043;42.682;23.376;2023-04-25T03:25:42;9.00;;;5.83;;
6029;SDS011;3043;42.682;23.376;2023-04-25T03:28:08;9.57;;;5.67;;
6029;SDS011;3043;42.682;23.376;2023-04-25T03:30:33;8.90;;;6.20;;
6029;SDS011;3043;42.682;23.376;2023-04-25T03:32:59;9.70;;;6.20;;
6029;SDS011;3043;42.682;23.376;2023-04-25T03:35:24;9.13;;;5.87;;
6029;SDS011;3043;42.682;23.376;2023-04-25T03:37:50;10.47;;;7.83;;
6029;SDS011;3043;42.682;23.376;2023-04-25T03:40:15;9.30;;;6.33;;
6029;SDS011;3043;42.682;23.376;2023-04-25T03:42:40;11.20;;;6.60;;
6029;SDS011;3043;42.682;23.376;2023-04-25T03:45:06;10.73;;;6.87;;
6029;SDS011;3043;42.682;23.376;2023-04-25T03:47:32;10.43;;;6.73;;
6029;SDS011;3043;42.682;23.376;2023-04-25T03:49:58;10.43;;;6.50;;
6029;SDS011;3043;42.682;23.376;2023-04-25T03:52:25;9.47;;;6.83;;
6029;SDS011;3043;42.682;23.376;2023-04-25T03:54:51;11.50;;;7.07;;
6029;SDS011;3043;42.682;23.376;2023-04-25T03:57:16;9.77;;;6.67;;
6029;SDS011;3043;42.682;23.376;2023-04-25T03:59:41;10.30;;;7.07;;
6029;SDS011;3043;42.682;23.376;2023-04-25T04:02:07;9.73;;;6.73;;
6029;SDS011;3043;42.682;23.376;2023-04-25T04:04:32;10.30;;;7.27;;
6029;SDS011;3043;42.682;23.376;2023-04-25T04:06:58;10.50;;;6.80;;
6029;SDS011;3043;42.682;23.376;2023-04-25T04:09:23;9.27;;;6.30;;
6029;SDS011;3043;42.682;23.376;2023-04-25T04:11:49;8.23;;;5.40;;
6029;SDS011;3043;42.682;23.376;2023-04-25T04:14:14;9.00;;;6.33;;
6029;SDS011;3043;42.682;23.376;2023-04-25T04:16:40;9.03;;;6.33;;
6029;SDS011;3043;42.682;23.376;2023-04-25T04:19:05;8.17;;;5.40;;
6029;SDS011;3043;42.682;23.376;2023-04-25T04:21:31;8.00;;;5.43;;
6029;SDS011;3043;42.682;23.376;2023-04-25T04:23:57;7.70;;;5.07;;
6029;SDS011;3043;42.682;23.376;2023-04-25T04:26:23;7.83;;;5.40;;
6029;SDS011;3043;42.682;23.376;2023-04-25T04:28:49;8.53;;;6.00;;
6029;SDS011;3043;42.682;23.376;2023-04-25T04:31:19;9.57;;;5.93;;
6029;SDS011;3043;42.682;23.376;2023-04-25T04:33:46;8.47;;;5.27;;
6029;SDS011;3043;42.682;23.376;2023-04-25T04:36:12;9.03;;;6.27;;
6029;SDS011;3043;42.682;23.376;2023-04-25T04:38:38;10.40;;;8.07;;
6029;SDS011;3043;42.682;23.376;2023-04-25T04:41:04;9.93;;;7.63;;
6029;SDS011;3043;42.682;23.376;2023-04-25T04:43:29;10.73;;;7.20;;
6029;SDS011;3043;42.682;23.376;2023-04-25T04:45:55;9.73;;;6.90;;
6029;SDS011;3043;42.682;23.376;2023-04-25T04:48:23;10.93;;;8.00;;
6029;SDS011;3043;42.682;23.376;2023-04-25T04:50:49;10.00;;;7.60;;
6029;SDS011;3043;42.682;23.376;2023-04-25T04:53:15;11.00;;;8.03;;
6029;SDS011;3043;42.682;23.376;2023-04-25T04:55:40;11.33;;;7.77;;
6029;SDS011;3043;42.682;23.376;2023-04-25T04:58:08;12.43;;;9.00;;
6029;SDS011;3043;42.682;23.376;2023-04-25T05:00:34;13.43;;;9.40;;
6029;SDS011;3043;42.682;23.376;2023-04-25T05:02:59;11.43;;;7.90;;
6029;SDS011;3043;42.682;23.376;2023-04-25T05:05:25;11.97;;;8.67;;
6029;SDS011;3043;42.682;23.376;2023-04-25T05:07:51;15.23;;;9.50;;
6029;SDS011;3043;42.682;23.376;2023-04-25T05:10:17;14.43;;;8.77;;
6029;SDS011;3043;42.682;23.376;2023-04-25T05:12:43;14.17;;;9.90;;
6029;SDS011;3043;42.682;23.376;2023-04-25T05:15:09;16.43;;;10.53;;
6029;SDS011;3043;42.682;23.376;2023-04-25T05:17:34;15.83;;;11.00;;
6029;SDS011;3043;42.682;23.376;2023-04-25T05:20:00;16.73;;;10.90;;
6029;SDS011;3043;42.682;23.376;2023-04-25T05:22:25;18.90;;;13.53;;
6029;SDS011;3043;42.682;23.376;2023-04-25T05:24:51;17.33;;;10.17;;
6029;SDS011;3043;42.682;23.376;2023-04-25T05:27:17;12.17;;;8.67;;
6029;SDS011;3043;42.682;23.376;2023-04-25T05:29:43;13.87;;;9.20;;
6029;SDS011;3043;42.682;23.376;2023-04-25T05:32:09;13.43;;;9.83;;
6029;SDS011;3043;42.682;23.376;2023-04-25T05:34:34;16.00;;;9.53;;
6029;SDS011;3043;42.682;23.376;2023-04-25T05:37:00;18.07;;;9.60;;
6029;SDS011;3043;42.682;23.376;2023-04-25T05:39:25;17.63;;;10.17;;
6029;SDS011;3043;42.682;23.376;2023-04-25T05:41:51;14.40;;;8.27;;
6029;SDS011;3043;42.682;23.376;2023-04-25T05:44:17;11.73;;;8.13;;
6029;SDS011;3043;42.682;23.376;2023-04-25T05:46:43;10.17;;;6.97;;
6029;SDS011;3043;42.682;23.376;2023-04-25T05:49:08;10.83;;;6.97;;
6029;SDS011;3043;42.682;23.376;2023-04-25T05:51:33;9.23;;;6.30;;
6029;SDS011;3043;42.682;23.376;2023-04-25T05:53:59;12.73;;;6.17;;
6029;SDS011;3043;42.682;23.376;2023-04-25T05:56:24;10.67;;;7.13;;
6029;SDS011;3043;42.682;23.376;2023-04-25T05:58:50;10.67;;;7.30;;
6029;SDS011;3043;42.682;23.376;2023-04-25T06:01:16;11.40;;;7.73;;
6029;SDS011;3043;42.682;23.376;2023-04-25T06:03:41;10.87;;;8.40;;
6029;SDS011;3043;42.682;23.376;2023-04-25T06:06:11;11.33;;;7.80;;
6029;SDS011;3043;42.682;23.376;2023-04-25T06:08:36;9.93;;;5.97;;
6029;SDS011;3043;42.682;23.376;2023-04-25T06:11:03;8.63;;;5.40;;
6029;SDS011;3043;42.682;23.376;2023-04-25T06:13:29;7.87;;;5.30;;
6029;SDS011;3043;42.682;23.376;2023-04-25T06:15:55;9.03;;;5.23;;
6029;SDS011;3043;42.682;23.376;2023-04-25T06:18:20;8.73;;;5.10;;
6029;SDS011;3043;42.682;23.376;2023-04-25T06:20:46;7.97;;;5.40;;
6029;SDS011;3043;42.682;23.376;2023-04-25T06:23:11;6.87;;;4.90;;
6029;SDS011;3043;42.682;23.376;2023-04-25T06:25:37;7.30;;;4.70;;
6029;SDS011;3043;42.682;23.376;2023-04-25T06:28:02;7.93;;;5.03;;
6029;SDS011;3043;42.682;23.376;2023-04-25T06:30:28;7.90;;;4.67;;
6029;SDS011;3043;42.682;23.376;2023-04-25T06:32:53;7.80;;;4.23;;
6029;SDS011;3043;42.682;23.376;2023-04-25T06:35:19;7.10;;;3.80;;
6029;SDS011;3043;42.682;23.376;2023-04-25T06:37:44;7.47;;;4.43;;
6029;SDS011;3043;42.682;23.376;2023-04-25T06:40:10;8.57;;;4.50;;
6029;SDS011;3043;42.682;23.376;2023-04-25T06:42:36;7.20;;;4.73;;
6029;SDS011;3043;42.682;23.376;2023-04-25T06:45:01;9.43;;;5.37;;
6029;SDS011;3043;42.682;23.376;2023-04-25T06:47:27;8.90;;;5.13;;
6029;SDS011;3043;42.682;23.376;2023-04-25T06:49:53;8.40;;;4.97;;
6029;SDS011;3043;42.682;23.376;2023-04-25T06:52:18;8.10;;;5.60;;
6029;SDS011;3043;42.682;23.376;2023-04-25T06:54:44;6.90;;;4.17;;
6029;SDS011;3043;42.682;23.376;2023-04-25T06:57:10;10.73;;;4.80;;
6029;SDS011;3043;42.682;23.376;2023-04-25T06:59:35;6.83;;;4.17;;
6029;SDS011;3043;42.682;23.376;2023-04-25T07:02:01;7.73;;;4.20;;
6029;SDS011;3043;42.682;23.376;2023-04-25T07:04:26;6.67;;;4.37;;
6029;SDS011;3043;42.682;23.376;2023-04-25T07:06:51;7.40;;;4.83;;
6029;SDS011;3043;42.682;23.376;2023-04-25T07:09:17;8.50;;;5.53;;
6029;SDS011;3043;42.682;23.376;2023-04-25T07:11:42;9.17;;;5.67;;
6029;SDS011;3043;42.682;23.376;2023-04-25T07:14:08;9.70;;;6.10;;
6029;SDS011;3043;42.682;23.376;2023-04-25T07:16:33;8.10;;;5.30;;
6029;SDS011;3043;42.682;23.376;2023-04-25T07:18:59;10.03;;;5.90;;
6029;SDS011;3043;42.682;23.376;2023-04-25T07:21:25;8.63;;;6.37;;
6029;SDS011;3043;42.682;23.376;2023-04-25T07:23:50;11.30;;;6.70;;
6029;SDS011;3043;42.682;23.376;2023-04-25T07:26:16;10.13;;;6.23;;
6029;SDS011;3043;42.682;23.376;2023-04-25T07:28:42;10.73;;;6.90;;
6029;SDS011;3043;42.682;23.376;2023-04-25T07:31:08;9.03;;;6.07;;
6029;SDS011;3043;42.682;23.376;2023-04-25T07:33:34;9.27;;;5.60;;
6029;SDS011;3043;42.682;23.376;2023-04-25T07:35:59;8.93;;;5.53;;
6029;SDS011;3043;42.682;23.376;2023-04-25T07:38:25;8.27;;;5.37;;
6029;SDS011;3043;42.682;23.376;2023-04-25T07:40:51;10.37;;;6.70;;
6029;SDS011;3043;42.682;23.376;2023-04-25T07:43:16;8.23;;;5.97;;
6029;SDS011;3043;42.682;23.376;2023-04-25T07:45:42;9.57;;;5.47;;
6029;SDS011;3043;42.682;23.376;2023-04-25T07:48:11;9.17;;;4.63;;
6029;SDS011;3043;42.682;23.376;2023-04-25T07:50:37;6.57;;;4.23;;
6029;SDS011;3043;42.682;23.376;2023-04-25T07:53:02;8.47;;;4.90;;
6029;SDS011;3043;42.682;23.376;2023-04-25T07:55:28;6.27;;;4.63;;
6029;SDS011;3043;42.682;23.376;2023-04-25T07:57:53;9.03;;;4.73;;
6029;SDS011;3043;42.682;23.376;2023-04-25T08:00:19;7.27;;;4.50;;
6029;SDS011;3043;42.682;23.376;2023-04-25T08:02:44;18.43;;;11.87;;
6029;SDS011;3043;42.682;23.376;2023-04-25T08:05:10;8.90;;;4.60;;
6029;SDS011;3043;42.682;23.376;2023-04-25T08:07:39;7.97;;;4.60;;
6029;SDS011;3043;42.682;23.376;2023-04-25T08:10:05;11.50;;;6.70;;
6029;SDS011;3043;42.682;23.376;2023-04-25T08:12:31;7.50;;;4.90;;
6029;SDS011;3043;42.682;23.376;2023-04-25T08:14:57;7.87;;;5.20;;
6029;SDS011;3043;42.682;23.376;2023-04-25T08:17:22;7.93;;;4.67;;
6029;SDS011;3043;42.682;23.376;2023-04-25T08:19:48;6.83;;;4.50;;
6029;SDS011;3043;42.682;23.376;2023-04-25T08:22:14;10.13;;;5.03;;
6029;SDS011;3043;42.682;23.376;2023-04-25T08:24:39;9.43;;;5.40;;
6029;SDS011;3043;42.682;23.376;2023-04-25T08:27:05;8.17;;;6.13;;
6029;SDS011;3043;42.682;23.376;2023-04-25T08:29:32;10.07;;;6.80;;
6029;SDS011;3043;42.682;23.376;2023-04-25T08:31:59;7.63;;;5.80;;
6029;SDS011;3043;42.682;23.376;2023-04-25T08:34:24;7.80;;;5.00;;
6029;SDS011;3043;42.682;23.376;2023-04-25T08:36:50;6.97;;;4.87;;
6029;SDS011;3043;42.682;23.376;2023-04-25T08:39:16;7.93;;;5.03;;
6029;SDS011;3043;42.682;23.376;2023-04-25T08:41:42;8.80;;;4.60;;
6029;SDS011;3043;42.682;23.376;2023-04-25T08:44:09;8.13;;;4.50;;
6029;SDS011;3043;42.682;23.376;2023-04-25T08:46:38;8.63;;;5.70;;
6029;SDS011;3043;42.682;23.376;2023-04-25T08:49:05;7.47;;;5.50;;
6029;SDS011;3043;42.682;23.376;2023-04-25T08:51:32;10.47;;;5.80;;
6029;SDS011;3043;42.682;23.376;2023-04-25T08:54:07;10.77;;;6.60;;
6029;SDS011;3043;42.682;23.376;2023-04-25T08:56:35;12.67;;;9.37;;
6029;SDS011;3043;42.682;23.376;2023-04-25T08:59:01;12.53;;;9.93;;
6029;SDS011;3043;42.682;23.376;2023-04-25T09:01:27;11.90;;;8.30;;
6029;SDS011;3043;42.682;23.376;2023-04-25T09:03:53;11.23;;;8.10;;
6029;SDS011;3043;42.682;23.376;2023-04-25T09:06:19;11.40;;;8.77;;
6029;SDS011;3043;42.682;23.376;2023-04-25T09:08:44;13.40;;;9.23;;
6029;SDS011;3043;42.682;23.376;2023-04-25T09:11:10;11.10;;;7.60;;
6029;SDS011;3043;42.682;23.376;2023-04-25T09:13:38;9.83;;;6.50;;
6029;SDS011;3043;42.682;23.376;2023-04-25T09:16:03;9.83;;;6.40;;
6029;SDS011;3043;42.682;23.376;2023-04-25T09:20:56;10.93;;;6.63;;
6029;SDS011;3043;42.682;23.376;2023-04-25T09:23:30;10.23;;;7.43;;
6029;SDS011;3043;42.682;23.376;2023-04-25T09:25:57;10.97;;;7.90;;
6029;SDS011;3043;42.682;23.376;2023-04-25T09:28:24;9.77;;;7.20;;
6029;SDS011;3043;42.682;23.376;2023-04-25T09:30:54;13.47;;;10.43;;
6029;SDS011;3043;42.682;23.376;2023-04-25T09:33:20;10.33;;;6.87;;
6029;SDS011;3043;42.682;23.376;2023-04-25T09:35:52;9.63;;;6.50;;
6029;SDS011;3043;42.682;23.376;2023-04-25T09:38:20;8.27;;;5.93;;
6029;SDS011;3043;42.682;23.376;2023-04-25T09:40:46;9.80;;;7.20;;
6029;SDS011;3043;42.682;23.376;2023-04-25T09:43:21;8.73;;;6.83;;
6029;SDS011;3043;42.682;23.376;2023-04-25T09:45:47;8.03;;;5.77;;
6029;SDS011;3043;42.682;23.376;2023-04-25T09:48:20;9.63;;;5.43;;
6029;SDS011;3043;42.682;23.376;2023-04-25T09:53:34;6.77;;;4.50;;
6029;SDS011;3043;42.682;23.376;2023-04-25T09:56:05;6.80;;;4.47;;
6029;SDS011;3043;42.682;23.376;2023-04-25T09:58:32;7.23;;;4.70;;
6029;SDS011;3043;42.682;23.376;2023-04-25T10:00:59;8.30;;;4.60;;
6029;SDS011;3043;42.682;23.376;2023-04-25T10:03:27;7.07;;;4.73;;
6029;SDS011;3043;42.682;23.376;2023-04-25T10:05:56;6.53;;;4.60;;
6029;SDS011;3043;42.682;23.376;2023-04-25T10:08:24;6.57;;;4.07;;
6029;SDS011;3043;42.682;23.376;2023-04-25T10:10:51;6.83;;;4.57;;
6029;SDS011;3043;42.682;23.376;2023-04-25T10:13:17;7.10;;;4.43;;
6029;SDS011;3043;42.682;23.376;2023-04-25T10:15:43;7.17;;;4.43;;
6029;SDS011;3043;42.682;23.376;2023-04-25T10:18:10;7.77;;;4.23;;
6029;SDS011;3043;42.682;23.376;2023-04-25T10:20:36;9.33;;;4.13;;
6029;SDS011;3043;42.682;23.376;2023-04-25T10:23:07;6.70;;;4.00;;
6029;SDS011;3043;42.682;23.376;2023-04-25T10:25:38;9.93;;;4.10;;
6029;SDS011;3043;42.682;23.376;2023-04-25T10:28:05;12.23;;;6.97;;
6029;SDS011;3043;42.682;23.376;2023-04-25T10:30:31;24.07;;;10.13;;
6029;SDS011;3043;42.682;23.376;2023-04-25T10:32:56;16.50;;;9.00;;
6029;SDS011;3043;42.682;23.376;2023-04-25T10:35:25;13.67;;;5.97;;
6029;SDS011;3043;42.682;23.376;2023-04-25T10:38:04;9.93;;;6.20;;
6029;SDS011;3043;42.682;23.376;2023-04-25T10:40:38;6.53;;;4.17;;
6029;SDS011;3043;42.682;23.376;2023-04-25T10:46:27;8.37;;;4.50;;
6029;SDS011;3043;42.682;23.376;2023-04-25T10:48:57;5.50;;;2.90;;
6029;SDS011;3043;42.682;23.376;2023-04-25T10:51:27;9.97;;;3.00;;
6029;SDS011;3043;42.682;23.376;2023-04-25T10:56:21;3.53;;;2.10;;
6029;SDS011;3043;42.682;23.376;2023-04-25T10:58:48;7.33;;;2.03;;
6029;SDS011;3043;42.682;23.376;2023-04-25T11:01:14;3.47;;;2.10;;
6029;SDS011;3043;42.682;23.376;2023-04-25T11:03:49;3.63;;;2.20;;
6029;SDS011;3043;42.682;23.376;2023-04-25T11:06:26;3.47;;;2.17;;
6029;SDS011;3043;42.682;23.376;2023-04-25T11:08:57;4.57;;;2.80;;
6029;SDS011;3043;42.682;23.376;2023-04-25T11:11:26;4.23;;;2.30;;
6029;SDS011;3043;42.682;23.376;2023-04-25T11:13:52;3.43;;;2.20;;
6029;SDS011;3043;42.682;23.376;2023-04-25T11:16:17;5.93;;;2.47;;
6029;SDS011;3043;42.682;23.376;2023-04-25T11:18:43;5.63;;;2.43;;
6029;SDS011;3043;42.682;23.376;2023-04-25T11:21:10;3.53;;;2.10;;
6029;SDS011;3043;42.682;23.376;2023-04-25T11:23:36;4.50;;;2.30;;
6029;SDS011;3043;42.682;23.376;2023-04-25T11:26:02;6.17;;;2.30;;
6029;SDS011;3043;42.682;23.376;2023-04-25T11:28:28;5.47;;;2.43;;
6029;SDS011;3043;42.682;23.376;2023-04-25T11:30:54;4.47;;;2.40;;
6029;SDS011;3043;42.682;23.376;2023-04-25T11:33:24;4.17;;;1.80;;
6029;SDS011;3043;42.682;23.376;2023-04-25T11:35:52;6.50;;;2.47;;
6029;SDS011;3043;42.682;23.376;2023-04-25T11:38:20;4.70;;;2.07;;
6029;SDS011;3043;42.682;23.376;2023-04-25T11:40:49;5.37;;;2.87;;
6029;SDS011;3043;42.682;23.376;2023-04-25T11:43:16;5.67;;;2.80;;
6029;SDS011;3043;42.682;23.376;2023-04-25T11:45:45;11.97;;;7.33;;
6029;SDS011;3043;42.682;23.376;2023-04-25T11:48:11;7.60;;;4.47;;
6029;SDS011;3043;42.682;23.376;2023-04-25T11:50:38;6.70;;;3.57;;
6029;SDS011;3043;42.682;23.376;2023-04-25T11:53:04;6.73;;;2.70;;
6029;SDS011;3043;42.682;23.376;2023-04-25T11:55:31;5.57;;;2.27;;
6029;SDS011;3043;42.682;23.376;2023-04-25T11:57:59;3.47;;;2.00;;
6029;SDS011;3043;42.682;23.376;2023-04-25T12:00:25;3.40;;;1.90;;
6029;SDS011;3043;42.682;23.376;2023-04-25T12:02:52;2.33;;;1.70;;
6029;SDS011;3043;42.682;23.376;2023-04-25T12:05:19;3.73;;;1.90;;
6029;SDS011;3043;42.682;23.376;2023-04-25T12:07:48;3.23;;;1.63;;
6029;SDS011;3043;42.682;23.376;2023-04-25T12:10:14;1.67;;;1.50;;
6029;SDS011;3043;42.682;23.376;2023-04-25T12:12:42;4.13;;;1.63;;
6029;SDS011;3043;42.682;23.376;2023-04-25T12:17:48;3.80;;;1.90;;
6029;SDS011;3043;42.682;23.376;2023-04-25T12:20:16;5.77;;;2.70;;
6029;SDS011;3043;42.682;23.376;2023-04-25T12:22:45;5.23;;;2.80;;
6029;SDS011;3043;42.682;23.376;2023-04-25T12:25:34;3.50;;;1.60;;
6029;SDS011;3043;42.682;23.376;2023-04-25T12:31:04;5.53;;;3.50;;
6029;SDS011;3043;42.682;23.376;2023-04-25T12:33:34;7.60;;;4.27;;
6029;SDS011;3043;42.682;23.376;2023-04-25T12:36:01;4.93;;;2.53;;
6029;SDS011;3043;42.682;23.376;2023-04-25T12:38:39;4.50;;;2.93;;
6029;SDS011;3043;42.682;23.376;2023-04-25T12:41:05;3.60;;;2.20;;
6029;SDS011;3043;42.682;23.376;2023-04-25T12:43:31;5.77;;;2.00;;
6029;SDS011;3043;42.682;23.376;2023-04-25T12:45:57;3.67;;;2.03;;
6029;SDS011;3043;42.682;23.376;2023-04-25T12:48:22;8.80;;;2.10;;
6029;SDS011;3043;42.682;23.376;2023-04-25T12:50:49;4.77;;;2.27;;
6029;SDS011;3043;42.682;23.376;2023-04-25T12:53:18;8.93;;;4.47;;
6029;SDS011;3043;42.682;23.376;2023-04-25T12:55:45;7.57;;;2.20;;
6029;SDS011;3043;42.682;23.376;2023-04-25T12:58:12;4.07;;;2.00;;
6029;SDS011;3043;42.682;23.376;2023-04-25T13:00:38;6.00;;;2.47;;
6029;SDS011;3043;42.682;23.376;2023-04-25T13:03:04;5.33;;;2.60;;
6029;SDS011;3043;42.682;23.376;2023-04-25T13:05:29;6.23;;;2.30;;
6029;SDS011;3043;42.682;23.376;2023-04-25T13:07:55;6.83;;;2.30;;
6029;SDS011;3043;42.682;23.376;2023-04-25T13:10:21;4.00;;;2.27;;
6029;SDS011;3043;42.682;23.376;2023-04-25T13:12:47;6.37;;;3.30;;
6029;SDS011;3043;42.682;23.376;2023-04-25T13:15:12;5.80;;;2.90;;
6029;SDS011;3043;42.682;23.376;2023-04-25T13:17:38;8.40;;;4.73;;
6029;SDS011;3043;42.682;23.376;2023-04-25T13:20:04;7.23;;;2.67;;
6029;SDS011;3043;42.682;23.376;2023-04-25T13:22:37;4.67;;;2.47;;
6029;SDS011;3043;42.682;23.376;2023-04-25T13:25:04;4.87;;;2.40;;
6029;SDS011;3043;42.682;23.376;2023-04-25T13:27:31;2.53;;;1.73;;
6029;SDS011;3043;42.682;23.376;2023-04-25T13:29:58;5.10;;;2.63;;
6029;SDS011;3043;42.682;23.376;2023-04-25T13:32:34;5.53;;;3.10;;
6029;SDS011;3043;42.682;23.376;2023-04-25T13:35:01;3.93;;;2.30;;
6029;SDS011;3043;42.682;23.376;2023-04-25T13:37:27;4.17;;;2.40;;
6029;SDS011;3043;42.682;23.376;2023-04-25T13:39:52;5.83;;;2.80;;
6029;SDS011;3043;42.682;23.376;2023-04-25T13:42:20;6.37;;;2.83;;
6029;SDS011;3043;42.682;23.376;2023-04-25T13:44:46;5.80;;;2.90;;
6029;SDS011;3043;42.682;23.376;2023-04-25T13:47:11;4.97;;;3.00;;
6029;SDS011;3043;42.682;23.376;2023-04-25T13:49:37;5.60;;;3.10;;
6029;SDS011;3043;42.682;23.376;2023-04-25T13:52:02;7.20;;;3.13;;
6029;SDS011;3043;42.682;23.376;2023-04-25T13:54:27;6.60;;;2.83;;
6029;SDS011;3043;42.682;23.376;2023-04-25T13:56:53;5.80;;;2.90;;
6029;SDS011;3043;42.682;23.376;2023-04-25T13:59:23;5.40;;;2.93;;
6029;SDS011;3043;42.682;23.376;2023-04-25T14:01:49;6.70;;;2.90;;
6029;SDS011;3043;42.682;23.376;2023-04-25T14:04:14;8.10;;;3.03;;
6029;SDS011;3043;42.682;23.376;2023-04-25T14:06:40;5.80;;;3.17;;
6029;SDS011;3043;42.682;23.376;2023-04-25T14:09:06;6.47;;;3.40;;
6029;SDS011;3043;42.682;23.376;2023-04-25T14:11:35;7.27;;;3.27;;
6029;SDS011;3043;42.682;23.376;2023-04-25T14:14:03;6.27;;;3.03;;
6029;SDS011;3043;42.682;23.376;2023-04-25T14:16:29;7.63;;;3.33;;
6029;SDS011;3043;42.682;23.376;2023-04-25T14:18:55;4.07;;;2.70;;
6029;SDS011;3043;42.682;23.376;2023-04-25T14:21:21;12.20;;;7.00;;
6029;SDS011;3043;42.682;23.376;2023-04-25T14:23:46;4.83;;;2.73;;
6029;SDS011;3043;42.682;23.376;2023-04-25T14:26:12;5.90;;;3.27;;
6029;SDS011;3043;42.682;23.376;2023-04-25T14:28:38;4.53;;;2.63;;
6029;SDS011;3043;42.682;23.376;2023-04-25T14:31:03;5.60;;;2.80;;
6029;SDS011;3043;42.682;23.376;2023-04-25T14:33:29;6.97;;;3.80;;
6029;SDS011;3043;42.682;23.376;2023-04-25T14:35:55;5.23;;;2.90;;
6029;SDS011;3043;42.682;23.376;2023-04-25T14:38:21;6.93;;;3.20;;
6029;SDS011;3043;42.682;23.376;2023-04-25T14:40:48;5.80;;;3.33;;
6029;SDS011;3043;42.682;23.376;2023-04-25T14:43:14;6.63;;;3.20;;
6029;SDS011;3043;42.682;23.376;2023-04-25T14:45:40;4.73;;;2.50;;
6029;SDS011;3043;42.682;23.376;2023-04-25T14:48:05;4.53;;;2.50;;
6029;SDS011;3043;42.682;23.376;2023-04-25T14:50:31;5.83;;;3.07;;
6029;SDS011;3043;42.682;23.376;2023-04-25T14:52:57;8.07;;;3.07;;
6029;SDS011;3043;42.682;23.376;2023-04-25T14:55:25;5.20;;;3.17;;
6029;SDS011;3043;42.682;23.376;2023-04-25T14:57:52;5.73;;;3.07;;
6029;SDS011;3043;42.682;23.376;2023-04-25T15:00:18;5.60;;;2.20;;
6029;SDS011;3043;42.682;23.376;2023-04-25T15:02:46;4.27;;;2.40;;
6029;SDS011;3043;42.682;23.376;2023-04-25T15:05:13;5.77;;;2.40;;
6029;SDS011;3043;42.682;23.376;2023-04-25T15:07:39;4.93;;;2.30;;
6029;SDS011;3043;42.682;23.376;2023-04-25T15:10:05;4.93;;;2.40;;